Time;durP1;ratioP1;P1;durP2;ratioP2;P2;SDS_P1;SDS_P2;PMS_P1;PMS_P2;Temp;Humidity;BMP_temperature;BMP_pressure;BME280_temperature;BME280_humidity;BME280_pressure;Samples;Min_cycle;Max_cycle;Signal;HPM_P1;HPM_P2
2022/11/18 00:00:55;;;;;;;31.10;14.40;;;;;;;14.51;73.99;96599.47;4440738;32;20158;-84
2022/11/18 00:03:22;;;;;;;30.05;14.27;;;;;;;14.82;72.82;96600.38;4440869;32;20143;-84
2022/11/18 00:05:56;;;;;;;28.05;12.60;;;;;;;14.90;73.24;96599.75;4440440;32;20081;-84
2022/11/18 00:08:24;;;;;;;25.58;12.32;;;;;;;15.30;72.40;96592.03;4440895;32;20148;-84
2022/11/18 00:10:51;;;;;;;29.02;12.95;;;;;;;15.15;70.70;96594.16;4440430;32;20479;-83
2022/11/18 00:16:07;;;;;;;30.15;13.60;;;;;;;15.18;71.06;96588.69;4440783;32;20148;-84
2022/11/18 00:18:34;;;;;;;28.15;12.68;;;;;;;15.51;69.31;96592.78;4439070;32;20561;-83
2022/11/18 00:21:03;;;;;;;28.80;13.02;;;;;;;15.34;69.33;96586.47;4440588;32;20146;-84
2022/11/18 00:23:30;;;;;;;24.77;11.98;;;;;;;14.98;68.82;96589.53;4440690;32;20176;-84
2022/11/18 00:26:04;;;;;;;28.67;12.63;;;;;;;14.73;69.96;96599.38;4439722;32;20103;-83
2022/11/18 00:28:31;;;;;;;27.00;11.95;;;;;;;14.58;70.20;96598.03;4440578;32;20336;-84
2022/11/18 00:31:10;;;;;;;26.08;11.75;;;;;;;14.19;73.01;96587.31;4440464;32;20093;-84
2022/11/18 00:33:37;;;;;;;23.70;11.30;;;;;;;13.98;73.54;96586.44;4440281;32;20095;-84
2022/11/18 00:36:06;;;;;;;27.27;11.88;;;;;;;14.90;69.85;96582.41;4440442;32;20149;-83
2022/11/18 00:38:33;;;;;;;24.55;11.35;;;;;;;14.50;71.43;96576.25;4440463;32;20333;-84
2022/11/18 00:41:06;;;;;;;26.90;12.07;;;;;;;14.20;71.90;96577.75;4440061;32;20114;-84
2022/11/18 00:43:33;;;;;;;30.12;14.30;;;;;;;14.32;71.01;96591.50;4439913;32;20765;-84
2022/11/18 00:46:01;;;;;;;30.90;13.25;;;;;;;13.00;77.48;96609.53;4440396;32;20108;-84
2022/11/18 00:48:28;;;;;;;29.67;13.98;;;;;;;14.29;71.99;96608.16;4438860;32;20477;-84
2022/11/18 00:50:57;;;;;;;30.80;13.77;;;;;;;13.89;73.15;96623.44;4440347;32;20404;-84
2022/11/18 00:53:25;;;;;;;32.90;13.98;;;;;;;14.29;72.22;96613.34;4439930;32;20090;-84
2022/11/18 00:55:53;;;;;;;29.30;13.13;;;;;;;14.76;70.56;96603.47;4439047;32;20153;-84
2022/11/18 00:58:20;;;;;;;30.00;14.23;;;;;;;15.09;69.01;96605.03;4440267;32;20108;-84
2022/11/18 01:00:50;;;;;;;31.10;14.40;;;;;;;14.96;69.26;96599.25;4439673;32;20148;-84
2022/11/18 01:03:18;;;;;;;30.45;13.98;;;;;;;15.85;65.84;96598.56;4440213;32;20095;-84
2022/11/18 01:05:45;;;;;;;33.65;15.45;;;;;;;15.58;66.52;96593.94;4440215;32;20089;-84
2022/11/18 01:08:12;;;;;;;28.87;13.90;;;;;;;15.17;67.94;96600.03;4439744;32;20494;-84
2022/11/18 01:10:40;;;;;;;30.15;13.43;;;;;;;15.45;66.65;96605.50;4439887;32;20413;-84
2022/11/18 01:13:21;;;;;;;27.20;12.35;;;;;;;15.65;65.39;96612.47;4440012;32;20089;-84
2022/11/18 01:15:54;;;;;;;36.47;12.95;;;;;;;14.53;68.80;96613.16;4439741;32;20065;-84
2022/11/18 01:18:23;;;;;;;31.70;13.23;;;;;;;14.49;70.10;96611.75;4439946;32;20435;-84
2022/11/18 01:20:50;;;;;;;30.83;13.32;;;;;;;15.06;68.66;96615.69;4439642;32;20111;-84
2022/11/18 01:23:19;;;;;;;32.85;11.73;;;;;;;14.95;68.96;96619.19;4439644;32;20114;-83
2022/11/18 01:25:48;;;;;;;31.85;12.40;;;;;;;14.15;72.83;96611.84;4439886;32;20152;-84
2022/11/18 01:28:16;;;;;;;30.62;12.23;;;;;;;14.41;72.25;96614.12;4439894;32;20085;-83
2022/11/18 01:30:49;;;;;;;35.47;11.80;;;;;;;13.81;74.98;96605.91;4439562;32;20081;-83
2022/11/18 01:33:16;;;;;;;31.92;11.68;;;;;;;13.22;78.10;96598.41;4439871;32;20085;-83
2022/11/18 01:35:43;;;;;;;32.85;10.88;;;;;;;13.65;76.21;96594.28;4439434;32;20089;-83
2022/11/18 01:38:12;;;;;;;31.55;11.93;;;;;;;13.95;75.00;96575.50;4440183;32;20360;-84
2022/11/18 01:40:40;;;;;;;38.10;11.15;;;;;;;13.79;75.03;96575.88;4441576;32;20153;-84
2022/11/18 01:43:16;;;;;;;41.63;10.93;;;;;;;14.29;73.22;96566.62;4441251;32;20148;-83
2022/11/18 01:45:45;;;;;;;26.75;10.25;;;;;;;14.26;73.17;96558.28;4441712;32;20281;-84
2022/11/18 01:48:30;;;;;;;43.63;11.02;;;;;;;14.47;71.77;96556.56;4441725;32;20224;-83
2022/11/18 01:51:03;;;;;;;47.70;10.73;;;;;;;14.37;71.64;96551.28;4440236;32;20144;-84
2022/11/18 01:53:33;;;;;;;54.83;11.52;;;;;;;14.72;70.34;96560.56;4441677;32;20104;-84
2022/11/18 01:56:06;;;;;;;65.80;11.50;;;;;;;14.24;72.70;96542.00;4440517;32;20116;-84
2022/11/18 01:58:37;;;;;;;70.75;11.00;;;;;;;15.12;69.98;96531.25;4441477;32;20090;-84
2022/11/18 02:01:06;;;;;;;65.55;10.95;;;;;;;15.09;70.24;96515.91;4441644;32;20115;-84
2022/11/18 02:03:33;;;;;;;101.65;11.75;;;;;;;16.03;64.71;96520.69;4440255;32;20089;-84
2022/11/18 02:06:01;;;;;;;119.60;12.65;;;;;;;15.26;67.44;96508.31;4441558;32;20103;-84
2022/11/18 02:08:29;;;;;;;120.82;12.40;;;;;;;14.55;71.40;96494.47;4441523;32;20542;-84
2022/11/18 02:10:56;;;;;;;116.70;12.90;;;;;;;14.73;69.93;96492.09;4441080;32;20145;-84
2022/11/18 02:13:23;;;;;;;194.32;15.60;;;;;;;15.18;68.98;96489.97;4441634;32;20130;-84
2022/11/18 02:16:17;;;;;;;158.52;13.73;;;;;;;15.28;68.55;96475.22;4440414;32;20085;-84
2022/11/18 02:19:15;;;;;;;32.17;10.00;;;;;;;15.36;68.10;96474.56;4441140;32;20128;-84
2022/11/18 02:22:25;;;;;;;96.97;12.02;;;;;;;15.45;67.35;96462.56;4440331;32;20124;-84
2022/11/18 02:25:04;;;;;;;147.00;13.77;;;;;;;15.59;66.79;96456.97;4423057;32;20216;-84
2022/11/18 02:28:01;;;;;;;116.97;13.93;;;;;;;15.12;68.61;96455.91;4440291;32;20081;-84
2022/11/18 02:30:31;;;;;;;102.05;12.98;;;;;;;15.01;68.76;96459.44;4441263;32;20098;-84
2022/11/18 02:33:09;;;;;;;92.97;12.52;;;;;;;15.89;65.62;96471.66;4439883;32;20527;-84
2022/11/18 02:35:40;;;;;;;;;;;;;;;16.38;62.49;96475.91;4440576;32;20089;-84
2022/11/18 02:38:20;;;;;;;126.68;12.20;;;;;;;16.47;61.81;96485.44;4440280;32;20502;-84
2022/11/18 02:40:54;;;;;;;109.15;12.18;;;;;;;16.09;62.45;96475.91;4440885;32;20093;-84
2022/11/18 02:43:30;;;;;;;78.18;11.20;;;;;;;15.83;64.03;96480.81;4439988;32;20093;-84
2022/11/18 02:46:03;;;;;;;92.55;11.77;;;;;;;16.00;63.15;96481.13;4439951;32;20107;-83
2022/11/18 02:48:32;;;;;;;38.50;10.43;;;;;;;15.53;65.02;96476.53;4439985;32;20456;-84
2022/11/18 02:51:00;;;;;;;32.80;9.48;;;;;;;16.44;62.02;96474.50;4441193;32;20186;-84
2022/11/18 02:53:29;;;;;;;27.37;8.88;;;;;;;16.68;59.98;96474.88;4439789;32;20167;-84
2022/11/18 02:55:57;;;;;;;33.35;9.48;;;;;;;16.26;61.33;96470.97;4440147;32;20217;-84
2022/11/18 02:58:24;;;;;;;51.22;9.65;;;;;;;16.52;60.16;96469.41;4441289;32;20138;-84
2022/11/18 03:00:53;;;;;;;63.38;10.07;;;;;;;15.95;62.16;96472.87;4440629;32;20156;-83
2022/11/18 03:03:34;;;;;;;57.80;10.32;;;;;;;15.32;64.59;96460.22;4441106;32;20112;-84
2022/11/18 03:06:06;;;;;;;75.43;9.82;;;;;;;15.52;64.55;96461.06;4441268;32;20089;-83
2022/11/18 03:08:41;;;;;;;63.97;9.82;;;;;;;16.53;61.21;96465.03;4440691;32;20100;-83
2022/11/18 03:11:17;;;;;;;57.95;9.10;;;;;;;16.47;60.74;96467.22;4439957;32;20478;-84
2022/11/18 03:13:59;;;;;;;64.80;9.85;;;;;;;15.95;61.67;96483.28;4439643;32;20503;-84
2022/11/18 03:16:31;;;;;;;29.10;8.65;;;;;;;15.60;63.96;96485.47;4441172;32;20085;-84
2022/11/18 03:19:09;;;;;;;35.80;7.72;;;;;;;14.76;67.76;96497.84;4439954;32;20097;-83
2022/11/18 03:21:43;;;;;;;42.22;9.05;;;;;;;14.78;67.53;96492.56;4439593;32;20114;-84
2022/11/18 03:24:18;;;;;;;25.35;7.30;;;;;;;14.44;69.22;96489.31;4440058;32;20134;-83
2022/11/18 03:26:50;;;;;;;40.83;8.68;;;;;;;14.36;69.84;96487.37;4439937;32;20089;-83
2022/11/18 03:29:21;;;;;;;40.95;8.88;;;;;;;14.56;69.03;96480.53;4439470;32;20430;-83
2022/11/18 03:31:55;;;;;;;45.58;8.70;;;;;;;14.67;68.60;96467.50;4439783;32;20105;-84
2022/11/18 03:34:35;;;;;;;58.70;8.15;;;;;;;14.81;68.67;96473.28;4439942;32;20109;-84
2022/11/18 03:37:06;;;;;;;61.72;8.32;;;;;;;14.81;68.20;96479.31;4439517;32;20093;-84
2022/11/18 03:39:39;;;;;;;71.50;9.25;;;;;;;14.60;68.59;96461.16;4440847;32;20148;-84
2022/11/18 03:42:14;;;;;;;58.47;7.90;;;;;;;13.85;72.83;96438.00;4440643;32;20101;-83
2022/11/18 03:44:46;;;;;;;49.95;8.45;;;;;;;13.85;72.18;96423.25;4440605;32;20170;-84
2022/11/18 03:47:25;;;;;;;;;;;;;;;14.74;70.07;96426.25;4440220;32;20085;-84
2022/11/18 03:49:56;;;;;;;48.83;7.57;;;;;;;14.81;68.98;96426.56;4439295;32;20391;-84
2022/11/18 03:52:28;;;;;;;42.47;6.75;;;;;;;15.43;66.14;96420.31;4440888;32;20162;-84
2022/11/18 03:54:56;;;;;;;47.85;7.22;;;;;;;15.34;65.73;96430.53;4439744;32;20170;-83
2022/11/18 03:57:35;;;;;;;36.88;7.53;;;;;;;14.36;69.24;96419.09;4439373;32;20509;-84
2022/11/18 04:00:07;;;;;;;85.43;9.70;;;;;;;14.24;70.67;96422.69;4440405;32;20146;-83
2022/11/18 04:02:34;;;;;;;45.97;7.47;;;;;;;15.10;68.01;96444.81;4440214;32;20090;-84
2022/11/18 04:05:03;;;;;;;44.30;8.00;;;;;;;15.16;66.94;96439.91;4440607;32;20101;-84
2022/11/18 04:07:37;;;;;;;63.20;8.50;;;;;;;14.90;67.20;96443.94;4440765;32;20447;-84
2022/11/18 04:10:14;;;;;;;60.45;9.23;;;;;;;15.18;66.66;96453.59;4439166;32;20081;-83
2022/11/18 04:12:45;;;;;;;26.15;7.20;;;;;;;15.54;65.10;96457.37;4440785;32;20154;-84
2022/11/18 04:15:12;;;;;;;54.47;7.85;;;;;;;15.14;65.76;96443.63;4439687;32;20109;-83
2022/11/18 04:17:41;;;;;;;57.55;7.93;;;;;;;14.63;68.64;96434.13;4440334;32;20089;-84
2022/11/18 04:20:19;;;;;;;50.38;7.22;;;;;;;14.17;70.50;96419.78;4440477;32;20432;-83
2022/11/18 04:22:46;;;;;;;24.00;5.32;;;;;;;14.20;70.84;96416.94;4440668;32;20158;-84
2022/11/18 04:25:13;;;;;;;48.55;7.30;;;;;;;14.60;68.97;96426.59;4440278;32;20113;-84
2022/11/18 04:27:40;;;;;;;45.03;7.68;;;;;;;14.67;67.38;96425.13;4440687;32;20485;-84
2022/11/18 04:30:08;;;;;;;32.97;7.00;;;;;;;14.59;68.03;96425.78;4440448;32;20085;-83
2022/11/18 04:32:35;;;;;;;41.42;7.68;;;;;;;13.29;74.40;96407.06;4440194;32;20096;-83
2022/11/18 04:35:02;;;;;;;58.42;8.65;;;;;;;13.95;70.72;96405.19;4440600;32;20124;-83
2022/11/18 04:37:29;;;;;;;60.85;7.93;;;;;;;14.30;70.39;96415.22;4440480;32;20148;-84
2022/11/18 04:39:56;;;;;;;84.03;8.90;;;;;;;14.41;69.58;96416.91;4439859;32;20085;-83
2022/11/18 04:42:24;;;;;;;75.10;7.55;;;;;;;14.84;67.67;96419.31;4439301;32;20153;-84
2022/11/18 04:44:51;;;;;;;57.80;8.13;;;;;;;14.56;68.89;96410.44;4440231;32;20114;-84
2022/11/18 04:47:17;;;;;;;70.32;9.15;;;;;;;14.62;68.58;96415.12;4440458;32;20490;-84
2022/11/18 04:49:44;;;;;;;63.67;7.65;;;;;;;14.89;67.53;96419.75;4440269;32;20146;-84
2022/11/18 04:52:11;;;;;;;49.70;7.80;;;;;;;14.93;67.19;96431.53;4439992;32;20109;-83
2022/11/18 04:54:38;;;;;;;95.55;9.48;;;;;;;15.07;66.95;96421.72;4439178;32;20172;-84
2022/11/18 04:57:05;;;;;;;33.40;6.43;;;;;;;15.08;66.19;96421.56;4440253;32;20147;-83
2022/11/18 04:59:32;;;;;;;78.18;9.05;;;;;;;14.73;68.23;96414.22;4439686;32;20583;-83
2022/11/18 05:02:00;;;;;;;123.93;9.85;;;;;;;13.63;73.47;96405.22;4440175;32;20089;-84
2022/11/18 05:04:32;;;;;;;56.60;8.48;;;;;;;13.38;74.03;96403.75;4440219;32;20158;-84
2022/11/18 05:07:00;;;;;;;91.43;9.75;;;;;;;13.59;73.64;96404.63;4439903;32;20123;-83
2022/11/18 05:09:27;;;;;;;43.45;9.35;;;;;;;14.41;69.97;96422.09;4441160;32;20082;-83
2022/11/18 05:14:44;;;;;;;105.85;9.55;;;;;;;14.25;71.42;96408.75;4441803;32;20156;-83
2022/11/18 05:17:16;;;;;;;78.30;10.25;;;;;;;14.14;71.91;96422.62;4440940;32;20103;-83
2022/11/18 05:19:44;;;;;;;119.85;10.15;;;;;;;13.03;76.99;96416.88;4445264;32;20112;-80
2022/11/18 05:22:11;;;;;;;80.03;9.35;;;;;;;13.20;75.33;96413.81;4453560;32;20148;-79
2022/11/18 05:24:38;;;;;;;61.83;7.97;;;;;;;13.40;74.31;96408.81;4454508;32;20122;-79
2022/11/18 05:27:05;;;;;;;77.57;8.93;;;;;;;13.36;75.00;96408.25;4454813;32;20163;-78
2022/11/18 05:29:43;;;;;;;77.22;8.73;;;;;;;13.47;73.42;96408.19;4454876;32;20135;-79
2022/11/18 05:32:10;;;;;;;67.85;9.15;;;;;;;12.94;75.87;96409.84;4454364;32;20069;-79
2022/11/18 05:34:38;;;;;;;116.22;10.48;;;;;;;14.05;72.03;96411.25;4453902;32;20090;-79
2022/11/18 05:37:05;;;;;;;125.60;9.73;;;;;;;14.16;71.63;96402.59;4454355;32;20104;-79
2022/11/18 05:39:34;;;;;;;158.05;10.07;;;;;;;14.45;70.24;96407.94;4454365;32;20110;-79
2022/11/18 05:44:48;;;;;;;148.68;9.88;;;;;;;14.30;70.27;96406.62;4454992;32;20054;-79
2022/11/18 05:47:24;;;;;;;89.70;8.13;;;;;;;14.48;69.24;96399.91;4454073;32;20080;-79
2022/11/18 05:49:52;;;;;;;131.55;10.02;;;;;;;14.58;68.84;96399.97;4453937;32;20057;-79
2022/11/18 05:52:19;;;;;;;90.93;8.07;;;;;;;14.64;68.25;96407.22;4454830;32;20122;-79
2022/11/18 05:54:49;;;;;;;55.12;6.82;;;;;;;14.35;69.35;96405.25;4454489;32;20058;-79
2022/11/18 05:57:16;;;;;;;246.43;11.98;;;;;;;14.56;68.85;96407.84;4453688;32;20775;-78
2022/11/18 05:59:42;;;;;;;262.02;12.75;;;;;;;13.85;70.25;96401.69;4454365;32;20457;-79
2022/11/18 06:02:13;;;;;;;210.45;10.55;;;;;;;14.88;67.32;96399.09;4453717;32;20117;-78
2022/11/18 06:04:43;;;;;;;140.23;8.38;;;;;;;14.69;68.26;96411.06;4454499;32;20153;-79
2022/11/18 06:07:22;;;;;;;85.00;7.28;;;;;;;14.79;67.47;96405.94;4454780;32;20103;-79
2022/11/18 06:09:58;;;;;;;66.60;6.25;;;;;;;15.12;66.65;96406.56;4454282;32;20073;-78
2022/11/18 06:12:34;;;;;;;58.90;5.80;;;;;;;15.07;66.16;96406.13;4455544;32;20122;-79
2022/11/18 06:15:04;;;;;;;60.88;6.05;;;;;;;15.24;65.01;96411.50;4456028;32;20118;-79
2022/11/18 06:17:36;;;;;;;14.07;4.93;;;;;;;15.00;66.32;96401.47;4455631;32;20098;-78
2022/11/18 06:20:04;;;;;;;13.80;4.70;;;;;;;14.90;67.00;96402.41;4456157;32;20057;-79
2022/11/18 06:22:31;;;;;;;15.00;5.03;;;;;;;14.50;67.87;96400.59;4455744;32;20074;-79
2022/11/18 06:24:59;;;;;;;16.87;5.87;;;;;;;14.36;69.46;96400.94;4455141;32;20080;-78
2022/11/18 06:27:27;;;;;;;15.55;5.93;;;;;;;13.75;72.22;96398.22;4455959;32;20089;-79
2022/11/18 06:29:55;;;;;;;15.68;5.72;;;;;;;14.50;69.50;96412.75;4455938;32;20062;-79
2022/11/18 06:32:22;;;;;;;12.55;3.90;;;;;;;13.95;71.17;96405.19;4455734;32;20074;-78
2022/11/18 06:34:49;;;;;;;12.88;4.75;;;;;;;14.33;70.11;96406.34;4455916;32;20110;-79
2022/11/18 06:37:19;;;;;;;11.68;4.47;;;;;;;13.62;72.42;96397.56;4455842;32;20104;-78
2022/11/18 06:39:54;;;;;;;12.60;4.80;;;;;;;12.48;78.19;96403.03;4455944;32;20100;-79
2022/11/18 06:45:07;;;;;;;13.85;4.45;;;;;;;11.26;87.59;96392.22;4455713;32;20106;-78
2022/11/18 06:47:34;;;;;;;11.98;4.10;;;;;;;11.35;86.68;96395.91;4455617;32;20090;-79
2022/11/18 06:50:08;;;;;;;13.20;4.07;;;;;;;12.09;83.67;96399.09;4455280;32;20103;-79
2022/11/18 06:52:35;;;;;;;17.92;4.87;;;;;;;12.05;83.41;96398.53;4455387;32;20070;-78
2022/11/18 06:55:06;;;;;;;22.67;4.75;;;;;;;12.48;81.69;96391.88;4454275;32;20066;-79
2022/11/18 06:57:33;;;;;;;16.25;4.25;;;;;;;12.59;81.79;96387.50;4454467;32;20096;-78
2022/11/18 07:00:02;;;;;;;37.92;4.20;;;;;;;13.23;78.34;96385.09;4452935;32;20081;-79
2022/11/18 07:02:28;;;;;;;31.73;4.85;;;;;;;12.36;81.85;96384.09;4452707;32;20084;-78
2022/11/18 07:04:55;;;;;;;76.07;5.90;;;;;;;12.42;82.28;96380.22;4450741;32;20098;-78
2022/11/18 07:07:22;;;;;;;61.50;4.40;;;;;;;12.28;84.07;96377.88;4445568;32;20104;-79
2022/11/18 07:09:51;;;;;;;24.73;4.25;;;;;;;12.24;84.58;96389.41;4448777;32;20053;-80
2022/11/18 07:12:18;;;;;;;90.03;6.03;;;;;;;12.19;84.37;96391.47;4452641;32;20070;-79
2022/11/18 07:14:46;;;;;;;54.55;5.45;;;;;;;11.83;87.18;96388.13;4450203;32;20065;-79
2022/11/18 07:17:13;;;;;;;47.90;4.53;;;;;;;11.69;87.28;96386.50;4454233;32;20062;-80
2022/11/18 07:19:40;;;;;;;122.47;8.20;;;;;;;12.21;85.92;96393.00;4454616;32;20076;-80
2022/11/18 07:22:07;;;;;;;26.60;4.18;;;;;;;11.93;86.95;96383.94;4452309;32;20118;-79
2022/11/18 07:24:34;;;;;;;79.18;8.82;;;;;;;12.27;85.59;96376.22;4446807;32;20117;-79
2022/11/18 07:27:01;;;;;;;138.12;11.50;;;;;;;11.49;89.05;96369.91;4446841;32;20120;-80
2022/11/18 07:29:28;;;;;;;95.57;9.40;;;;;;;11.64;88.93;96365.37;4443703;32;20053;-79
2022/11/18 07:31:55;;;;;;;43.08;6.82;;;;;;;11.77;89.31;96379.03;4443298;32;20090;-80
2022/11/18 07:34:22;;;;;;;43.40;5.97;;;;;;;11.37;90.32;96375.13;4440923;32;20146;-80
2022/11/18 07:36:49;;;;;;;28.23;5.72;;;;;;;11.21;91.52;96373.66;4444592;32;20082;-81
2022/11/18 07:39:16;;;;;;;28.40;6.25;;;;;;;11.49;91.06;96379.44;4448057;32;20073;-80
2022/11/18 07:41:43;;;;;;;53.33;7.15;;;;;;;11.61;90.16;96370.78;4445540;32;20158;-79
2022/11/18 07:44:10;;;;;;;46.25;6.62;;;;;;;11.00;92.78;96368.28;4441545;32;20098;-79
2022/11/18 07:46:37;;;;;;;16.45;3.58;;;;;;;11.25;91.62;96371.66;4441700;32;20085;-79
2022/11/18 07:49:06;;;;;;;42.65;4.35;;;;;;;11.70;89.56;96374.44;4441138;32;20583;-79
2022/11/18 07:51:35;;;;;;;115.95;7.93;;;;;;;11.28;91.48;96376.62;4443456;32;20073;-78
2022/11/18 07:54:07;;;;;;;113.72;7.45;;;;;;;11.53;91.67;96371.34;4442764;32;20054;-79
2022/11/18 07:56:34;;;;;;;31.60;4.12;;;;;;;11.04;93.59;96368.88;4444826;32;20085;-79
2022/11/18 07:59:01;;;;;;;46.05;4.53;;;;;;;11.62;91.46;96371.59;4441817;32;20143;-79
2022/11/18 08:01:29;;;;;;;76.10;6.05;;;;;;;11.92;87.61;96373.72;4447257;32;20118;-80
2022/11/18 08:04:03;;;;;;;51.83;4.72;;;;;;;11.22;91.29;96366.75;4449675;32;20069;-79
2022/11/18 08:06:31;;;;;;;13.80;3.67;;;;;;;11.16;92.84;96362.81;4442759;32;20167;-80
2022/11/18 08:08:58;;;;;;;35.70;4.70;;;;;;;11.72;90.08;96364.81;4440477;32;20121;-80
2022/11/18 08:11:25;;;;;;;28.00;5.40;;;;;;;11.87;88.16;96372.28;4441041;32;20283;-80
2022/11/18 08:13:52;;;;;;;23.55;5.30;;;;;;;11.44;90.27;96366.00;4443255;32;20068;-80
2022/11/18 08:16:22;;;;;;;13.32;4.12;;;;;;;11.68;89.13;96360.78;4450053;32;20064;-80
2022/11/18 08:18:49;;;;;;;9.20;3.08;;;;;;;11.92;88.21;96359.03;4453596;32;20073;-80
2022/11/18 08:21:18;;;;;;;8.32;2.90;;;;;;;12.33;86.06;96361.03;4450274;32;20085;-81
2022/11/18 08:24:03;;;;;;;7.87;3.03;;;;;;;11.77;87.73;96358.34;4451150;32;20089;-80
2022/11/18 08:26:30;;;;;;;6.10;2.22;;;;;;;11.64;88.11;96355.03;4453005;32;20082;-80
2022/11/18 08:29:00;;;;;;;5.90;2.05;;;;;;;12.63;83.91;96354.47;4454798;32;20066;-80
2022/11/18 08:31:29;;;;;;;8.50;2.45;;;;;;;13.23;80.20;96353.19;4448107;32;20070;-80
2022/11/18 08:33:58;;;;;;;8.35;2.60;;;;;;;12.99;80.52;96345.59;4446517;32;20819;-80
2022/11/18 08:36:27;;;;;;;6.12;2.22;;;;;;;13.55;79.64;96351.41;4444340;32;20087;-79
2022/11/18 08:38:55;;;;;;;7.15;2.67;;;;;;;13.03;81.92;96342.63;4442060;32;20160;-79
2022/11/18 08:41:31;;;;;;;7.68;2.67;;;;;;;12.48;83.21;96340.13;4440409;32;20095;-79
2022/11/18 08:44:00;;;;;;;6.20;2.05;;;;;;;12.55;83.01;96338.72;4442431;32;20101;-79
2022/11/18 08:46:27;;;;;;;4.80;1.90;;;;;;;13.49;78.36;96343.31;4440581;32;20168;-78
2022/11/18 08:48:55;;;;;;;6.32;2.30;;;;;;;13.23;78.60;96342.84;4440078;32;20078;-78
2022/11/18 08:51:21;;;;;;;6.20;2.12;;;;;;;12.56;82.16;96332.59;4439873;32;20479;-78
2022/11/18 08:53:49;;;;;;;6.70;2.70;;;;;;;12.93;80.76;96328.75;4440350;32;20527;-78
2022/11/18 08:56:18;;;;;;;6.28;2.10;;;;;;;13.23;79.30;96335.06;4431695;32;281132;-78
2022/11/18 08:58:45;;;;;;;4.60;1.95;;;;;;;13.48;78.86;96339.06;4438896;32;20089;-78
2022/11/18 09:01:12;;;;;;;4.78;1.60;;;;;;;14.17;75.05;96342.81;4440137;32;20518;-78
2022/11/18 09:03:39;;;;;;;6.00;2.12;;;;;;;13.78;75.20;96341.75;4440162;32;20089;-78
2022/11/18 09:06:10;;;;;;;5.57;1.75;;;;;;;13.71;76.06;96340.59;4439695;32;20095;-78
2022/11/18 09:08:38;;;;;;;5.03;2.25;;;;;;;13.42;77.86;96332.63;4438818;32;20107;-79
2022/11/18 09:11:18;;;;;;;5.68;1.87;;;;;;;13.11;78.57;96330.84;4439934;32;20101;-79
2022/11/18 09:13:45;;;;;;;8.55;3.45;;;;;;;13.27;78.79;96331.28;4439770;32;20104;-78
2022/11/18 09:16:33;;;;;;;11.57;4.80;;;;;;;13.40;76.94;96333.69;4440167;32;20097;-78
2022/11/18 09:19:01;;;;;;;6.20;2.10;;;;;;;12.75;81.38;96325.84;4441112;32;20151;-78
2022/11/18 09:21:48;;;;;;;3.75;1.52;;;;;;;13.58;77.89;96327.84;4452719;32;20100;-78
2022/11/18 09:24:15;;;;;;;4.15;1.60;;;;;;;14.19;73.90;96324.50;4450443;32;20778;-79
2022/11/18 09:26:43;;;;;;;5.65;2.35;;;;;;;13.63;75.71;96331.84;4449038;32;20095;-78
2022/11/18 09:29:12;;;;;;;8.68;3.08;;;;;;;14.05;75.03;96328.28;4449421;32;20111;-78
2022/11/18 09:31:39;;;;;;;8.35;3.20;;;;;;;14.32;74.16;96316.50;4445933;32;20162;-78
2022/11/18 09:34:09;;;;;;;13.07;4.95;;;;;;;14.61;72.36;96312.28;4447710;32;20107;-78
2022/11/18 09:36:37;;;;;;;11.15;3.90;;;;;;;15.00;70.94;96312.34;4449344;32;20100;-78
2022/11/18 09:39:04;;;;;;;11.27;4.85;;;;;;;15.16;71.09;96304.03;4448523;32;20117;-78
2022/11/18 09:41:39;;;;;;;10.27;4.18;;;;;;;15.43;69.24;96306.78;4447566;32;20112;-78
2022/11/18 09:44:41;;;;;;;12.52;5.47;;;;;;;15.07;69.47;96307.44;4447476;32;20061;-79
2022/11/18 09:47:28;;;;;;;9.45;3.50;;;;;;;14.98;70.48;96303.84;4448914;32;20054;-79
2022/11/18 09:49:57;;;;;;;3.22;1.23;;;;;;;15.03;70.79;96299.91;4448061;32;20492;-77
2022/11/18 09:52:39;;;;;;;5.35;1.83;;;;;;;14.28;72.53;96287.41;4439329;32;20502;-77
2022/11/18 09:55:17;;;;;;;7.97;3.10;;;;;;;14.71;71.48;96292.34;4439019;32;20147;-77
2022/11/18 09:57:49;;;;;;;3.25;1.55;;;;;;;14.85;71.22;96292.91;4443549;32;20072;-78
2022/11/18 10:00:20;;;;;;;8.63;3.10;;;;;;;14.10;72.77;96288.97;4451227;32;20115;-78
2022/11/18 10:03:00;;;;;;;5.70;2.22;;;;;;;15.09;70.23;96302.91;4451943;32;20077;-78
2022/11/18 10:05:30;;;;;;;3.50;1.40;;;;;;;14.70;71.14;96302.88;4454188;32;20438;-78
2022/11/18 10:08:11;;;;;;;4.28;1.60;;;;;;;15.38;68.93;96297.72;4453586;32;20105;-77
2022/11/18 10:10:48;;;;;;;4.22;1.33;;;;;;;15.22;69.58;96296.50;4452793;32;20097;-78
2022/11/18 10:13:53;;;;;;;2.47;1.00;;;;;;;13.55;77.44;96291.00;4450513;32;20061;-79
2022/11/18 10:16:28;;;;;;;2.72;1.27;;;;;;;13.47;79.43;96296.78;4449807;32;20071;-78
2022/11/18 10:19:19;;;;;;;4.45;1.33;;;;;;;12.05;86.77;96281.37;4452109;32;20203;-78
2022/11/18 10:22:14;;;;;;;4.15;1.50;;;;;;;12.33;86.40;96286.03;4453765;32;20111;-77
2022/11/18 10:24:52;;;;;;;2.95;1.10;;;;;;;12.77;84.29;96286.12;4452271;32;20089;-78
2022/11/18 10:27:20;;;;;;;3.55;1.20;;;;;;;12.88;83.20;96281.72;4451077;32;20123;-79
2022/11/18 10:29:56;;;;;;;3.62;1.35;;;;;;;12.90;82.93;96282.41;4448398;32;20070;-79
2022/11/18 10:32:23;;;;;;;4.00;1.35;;;;;;;14.28;76.66;96284.81;4447328;32;20082;-79
2022/11/18 10:34:56;;;;;;;2.58;1.30;;;;;;;13.62;78.70;96284.38;4448026;32;20719;-79
2022/11/18 10:37:29;;;;;;;2.97;1.20;;;;;;;13.01;82.52;96282.37;4449350;32;20107;-78
2022/11/18 10:40:28;;;;;;;4.10;1.60;;;;;;;13.77;78.54;96288.25;4449161;32;20153;-79
2022/11/18 10:42:55;;;;;;;3.47;1.30;;;;;;;13.81;78.42;96281.03;4452899;32;20122;-77
2022/11/18 10:45:25;;;;;;;3.60;1.50;;;;;;;14.07;76.42;96284.06;4454573;32;20114;-78
2022/11/18 10:48:04;;;;;;;4.75;1.60;;;;;;;13.67;79.31;96279.59;4454898;32;20077;-78
2022/11/18 10:50:46;;;;;;;4.78;2.00;;;;;;;12.70;83.53;96275.41;4452188;32;20062;-78
2022/11/18 10:53:33;;;;;;;7.25;2.50;;;;;;;13.41;80.11;96283.53;4454673;32;20111;-78
2022/11/18 10:56:06;;;;;;;5.37;1.83;;;;;;;12.27;86.59;96271.03;4454704;32;20087;-77
2022/11/18 10:58:42;;;;;;;4.82;1.77;;;;;;;12.66;85.28;96267.09;4451642;32;20082;-76
2022/11/18 11:01:19;;;;;;;7.45;1.95;;;;;;;11.61;89.80;96276.97;4438312;32;20063;-76
2022/11/18 11:04:00;;;;;;;4.40;1.95;;;;;;;12.26;87.81;96271.97;4439936;32;20117;-77
2022/11/18 11:06:30;;;;;;;3.87;1.60;;;;;;;12.32;87.68;96271.47;4439194;32;20108;-77
2022/11/18 11:09:07;;;;;;;6.20;2.00;;;;;;;12.53;85.24;96276.72;4561720;26;20813;-79
2022/11/18 11:11:42;;;;;;;5.05;1.73;;;;;;;12.80;84.01;96280.69;4456387;32;20078;-76
2022/11/18 11:14:27;;;;;;;4.00;1.92;;;;;;;12.94;83.45;96281.22;4470520;32;20103;-76
2022/11/18 11:16:56;;;;;;;3.62;1.65;;;;;;;11.33;91.58;96273.00;4467177;32;20088;-78
2022/11/18 11:19:55;;;;;;;3.85;1.67;;;;;;;11.90;88.96;96278.19;4464118;32;20097;-77
2022/11/18 11:22:22;;;;;;;7.47;2.40;;;;;;;12.78;84.94;96277.41;4452230;32;20645;-78
2022/11/18 11:24:49;;;;;;;4.65;1.60;;;;;;;12.92;83.49;96266.75;4456209;32;20248;-78
2022/11/18 11:27:22;;;;;;;2.67;1.45;;;;;;;13.19;81.25;96267.16;4440896;32;20162;-78
2022/11/18 11:30:16;;;;;;;3.03;1.40;;;;;;;13.66;78.87;96265.00;4455084;32;20112;-78
2022/11/18 11:33:00;;;;;;;2.95;1.35;;;;;;;13.72;79.50;96268.88;4441075;32;20097;-78
2022/11/18 11:35:53;;;;;;;3.62;1.50;;;;;;;14.19;76.61;96259.66;4441508;32;20150;-78
2022/11/18 11:38:58;;;;;;;3.75;1.52;;;;;;;14.47;74.52;96255.56;4454991;32;20092;-79
2022/11/18 11:41:53;;;;;;;4.70;1.60;;;;;;;14.37;75.07;96247.72;4454907;32;20117;-78
2022/11/18 11:44:26;;;;;;;4.97;1.90;;;;;;;14.57;75.46;96245.16;4455560;32;20089;-78
2022/11/18 11:50:00;;;;;;;5.93;1.70;;;;;;;13.18;81.69;96236.97;4455137;32;20109;-78
2022/11/18 11:52:56;;;;;;;3.25;1.60;;;;;;;12.89;84.21;96228.19;4455283;32;20154;-78
2022/11/18 11:55:26;;;;;;;7.05;2.05;;;;;;;14.39;76.75;96242.38;4437333;32;20097;-80
2022/11/18 11:58:30;;;;;;;4.80;1.80;;;;;;;14.79;74.87;96244.97;4455347;32;20169;-78
2022/11/18 12:01:25;;;;;;;8.75;2.45;;;;;;;15.11;72.28;96251.66;4454246;32;20435;-78